sensor_id;sensor_type;location;lat;lon;timestamp;P1;durP1;ratioP1;P2;durP2;ratioP2
12687;SDS011;6408;59.388;17.798;2022-08-19T00:01:14;14.70;;;12.68;;
12687;SDS011;6408;59.388;17.798;2022-08-19T00:03:41;16.08;;;13.38;;
12687;SDS011;6408;59.388;17.798;2022-08-19T00:06:08;14.88;;;13.27;;
12687;SDS011;6408;59.388;17.798;2022-08-19T00:08:34;16.45;;;13.77;;
12687;SDS011;6408;59.388;17.798;2022-08-19T00:11:03;15.75;;;13.45;;
12687;SDS011;6408;59.388;17.798;2022-08-19T00:13:30;17.20;;;13.80;;
12687;SDS011;6408;59.388;17.798;2022-08-19T00:15:57;15.82;;;13.95;;
12687;SDS011;6408;59.388;17.798;2022-08-19T00:18:24;18.63;;;15.02;;
12687;SDS011;6408;59.388;17.798;2022-08-19T00:20:51;20.15;;;15.77;;
12687;SDS011;6408;59.388;17.798;2022-08-19T00:23:18;17.40;;;14.23;;
12687;SDS011;6408;59.388;17.798;2022-08-19T00:25:45;19.92;;;14.82;;
12687;SDS011;6408;59.388;17.798;2022-08-19T00:28:13;17.58;;;14.10;;
12687;SDS011;6408;59.388;17.798;2022-08-19T00:30:40;18.73;;;14.75;;
12687;SDS011;6408;59.388;17.798;2022-08-19T00:33:06;17.75;;;14.80;;
12687;SDS011;6408;59.388;17.798;2022-08-19T00:35:33;18.55;;;14.20;;
12687;SDS011;6408;59.388;17.798;2022-08-19T00:38:02;17.63;;;14.05;;
12687;SDS011;6408;59.388;17.798;2022-08-19T00:40:31;21.02;;;14.60;;
12687;SDS011;6408;59.388;17.798;2022-08-19T00:42:58;16.33;;;14.18;;
12687;SDS011;6408;59.388;17.798;2022-08-19T00:45:27;18.20;;;13.93;;
12687;SDS011;6408;59.388;17.798;2022-08-19T00:47:56;16.15;;;13.30;;
12687;SDS011;6408;59.388;17.798;2022-08-19T00:50:23;21.17;;;14.32;;
12687;SDS011;6408;59.388;17.798;2022-08-19T00:52:50;19.33;;;14.27;;
12687;SDS011;6408;59.388;17.798;2022-08-19T00:55:19;17.75;;;14.77;;
12687;SDS011;6408;59.388;17.798;2022-08-19T00:57:54;18.33;;;14.82;;
12687;SDS011;6408;59.388;17.798;2022-08-19T01:00:24;19.20;;;14.43;;
12687;SDS011;6408;59.388;17.798;2022-08-19T01:02:53;18.42;;;14.80;;
12687;SDS011;6408;59.388;17.798;2022-08-19T01:05:21;20.88;;;14.73;;
12687;SDS011;6408;59.388;17.798;2022-08-19T01:07:52;20.52;;;14.70;;
12687;SDS011;6408;59.388;17.798;2022-08-19T01:10:21;20.20;;;14.82;;
12687;SDS011;6408;59.388;17.798;2022-08-19T01:12:51;18.60;;;15.18;;
12687;SDS011;6408;59.388;17.798;2022-08-19T01:15:21;19.88;;;16.05;;
12687;SDS011;6408;59.388;17.798;2022-08-19T01:17:52;22.42;;;17.27;;
12687;SDS011;6408;59.388;17.798;2022-08-19T01:20:21;19.52;;;15.23;;
12687;SDS011;6408;59.388;17.798;2022-08-19T01:22:51;23.27;;;15.85;;
12687;SDS011;6408;59.388;17.798;2022-08-19T01:25:20;21.52;;;15.50;;
12687;SDS011;6408;59.388;17.798;2022-08-19T01:27:51;19.35;;;15.68;;
12687;SDS011;6408;59.388;17.798;2022-08-19T01:30:20;28.92;;;16.63;;
12687;SDS011;6408;59.388;17.798;2022-08-19T01:32:49;23.35;;;16.48;;
12687;SDS011;6408;59.388;17.798;2022-08-19T01:35:17;21.45;;;16.23;;
12687;SDS011;6408;59.388;17.798;2022-08-19T01:37:49;22.90;;;16.17;;
12687;SDS011;6408;59.388;17.798;2022-08-19T01:40:20;22.33;;;16.25;;
12687;SDS011;6408;59.388;17.798;2022-08-19T01:42:48;27.55;;;16.80;;
12687;SDS011;6408;59.388;17.798;2022-08-19T01:45:16;22.23;;;16.45;;
12687;SDS011;6408;59.388;17.798;2022-08-19T01:47:43;21.92;;;17.55;;
12687;SDS011;6408;59.388;17.798;2022-08-19T01:50:10;21.83;;;16.58;;
12687;SDS011;6408;59.388;17.798;2022-08-19T01:52:39;20.13;;;15.68;;
12687;SDS011;6408;59.388;17.798;2022-08-19T01:55:11;22.55;;;17.02;;
12687;SDS011;6408;59.388;17.798;2022-08-19T01:57:44;19.05;;;15.48;;
12687;SDS011;6408;59.388;17.798;2022-08-19T02:00:14;21.83;;;15.65;;
12687;SDS011;6408;59.388;17.798;2022-08-19T02:02:43;21.77;;;17.05;;
12687;SDS011;6408;59.388;17.798;2022-08-19T02:05:10;19.27;;;16.23;;
12687;SDS011;6408;59.388;17.798;2022-08-19T02:07:38;21.02;;;16.88;;
12687;SDS011;6408;59.388;17.798;2022-08-19T02:10:06;18.33;;;15.55;;
12687;SDS011;6408;59.388;17.798;2022-08-19T02:12:37;24.65;;;17.50;;
12687;SDS011;6408;59.388;17.798;2022-08-19T02:15:04;21.50;;;16.73;;
12687;SDS011;6408;59.388;17.798;2022-08-19T02:17:32;23.05;;;16.98;;
12687;SDS011;6408;59.388;17.798;2022-08-19T02:19:59;18.88;;;15.88;;
12687;SDS011;6408;59.388;17.798;2022-08-19T02:22:26;17.92;;;16.08;;
12687;SDS011;6408;59.388;17.798;2022-08-19T02:24:53;17.48;;;15.07;;
12687;SDS011;6408;59.388;17.798;2022-08-19T02:27:22;20.90;;;16.60;;
12687;SDS011;6408;59.388;17.798;2022-08-19T02:29:50;22.15;;;16.73;;
12687;SDS011;6408;59.388;17.798;2022-08-19T02:32:17;20.20;;;16.73;;
12687;SDS011;6408;59.388;17.798;2022-08-19T02:34:45;21.58;;;16.80;;
12687;SDS011;6408;59.388;17.798;2022-08-19T02:37:12;20.80;;;17.20;;
12687;SDS011;6408;59.388;17.798;2022-08-19T02:39:53;18.88;;;16.90;;
12687;SDS011;6408;59.388;17.798;2022-08-19T02:42:21;20.15;;;18.02;;
12687;SDS011;6408;59.388;17.798;2022-08-19T02:44:48;20.45;;;16.67;;
12687;SDS011;6408;59.388;17.798;2022-08-19T02:47:15;20.88;;;17.95;;
12687;SDS011;6408;59.388;17.798;2022-08-19T02:49:41;23.33;;;18.60;;
12687;SDS011;6408;59.388;17.798;2022-08-19T02:52:08;21.58;;;18.42;;
12687;SDS011;6408;59.388;17.798;2022-08-19T02:54:36;18.70;;;16.40;;
12687;SDS011;6408;59.388;17.798;2022-08-19T02:57:03;22.65;;;17.73;;
12687;SDS011;6408;59.388;17.798;2022-08-19T02:59:32;23.80;;;18.60;;
12687;SDS011;6408;59.388;17.798;2022-08-19T03:01:59;20.13;;;17.33;;
12687;SDS011;6408;59.388;17.798;2022-08-19T03:04:26;20.17;;;18.02;;
12687;SDS011;6408;59.388;17.798;2022-08-19T03:06:53;20.67;;;17.50;;
12687;SDS011;6408;59.388;17.798;2022-08-19T03:09:20;21.83;;;18.35;;
12687;SDS011;6408;59.388;17.798;2022-08-19T03:11:46;23.27;;;18.52;;
12687;SDS011;6408;59.388;17.798;2022-08-19T03:14:13;24.25;;;19.38;;
12687;SDS011;6408;59.388;17.798;2022-08-19T03:16:43;24.17;;;18.30;;
12687;SDS011;6408;59.388;17.798;2022-08-19T03:19:12;20.80;;;17.80;;
12687;SDS011;6408;59.388;17.798;2022-08-19T03:21:39;24.70;;;18.73;;
12687;SDS011;6408;59.388;17.798;2022-08-19T03:24:06;20.92;;;18.35;;
12687;SDS011;6408;59.388;17.798;2022-08-19T03:26:37;22.13;;;19.05;;
12687;SDS011;6408;59.388;17.798;2022-08-19T03:29:05;20.45;;;17.60;;
12687;SDS011;6408;59.388;17.798;2022-08-19T03:31:34;21.63;;;18.92;;
12687;SDS011;6408;59.388;17.798;2022-08-19T03:34:02;23.83;;;18.15;;
12687;SDS011;6408;59.388;17.798;2022-08-19T03:36:29;22.83;;;18.75;;
12687;SDS011;6408;59.388;17.798;2022-08-19T03:38:57;20.45;;;16.85;;
12687;SDS011;6408;59.388;17.798;2022-08-19T03:41:27;19.17;;;17.13;;
12687;SDS011;6408;59.388;17.798;2022-08-19T03:43:56;19.38;;;16.83;;
12687;SDS011;6408;59.388;17.798;2022-08-19T03:46:23;18.92;;;16.75;;
12687;SDS011;6408;59.388;17.798;2022-08-19T03:48:55;23.73;;;17.98;;
12687;SDS011;6408;59.388;17.798;2022-08-19T03:51:26;24.98;;;19.40;;
12687;SDS011;6408;59.388;17.798;2022-08-19T03:53:56;21.27;;;18.83;;
12687;SDS011;6408;59.388;17.798;2022-08-19T03:56:26;20.42;;;17.63;;
12687;SDS011;6408;59.388;17.798;2022-08-19T03:58:53;23.92;;;18.83;;
12687;SDS011;6408;59.388;17.798;2022-08-19T04:01:22;21.90;;;17.83;;
12687;SDS011;6408;59.388;17.798;2022-08-19T04:03:51;20.95;;;17.25;;
12687;SDS011;6408;59.388;17.798;2022-08-19T04:06:19;21.08;;;18.55;;
12687;SDS011;6408;59.388;17.798;2022-08-19T04:08:49;24.50;;;19.17;;
12687;SDS011;6408;59.388;17.798;2022-08-19T04:11:20;21.60;;;16.95;;
12687;SDS011;6408;59.388;17.798;2022-08-19T04:13:49;21.60;;;18.63;;
12687;SDS011;6408;59.388;17.798;2022-08-19T04:16:17;23.33;;;19.00;;
12687;SDS011;6408;59.388;17.798;2022-08-19T04:18:44;25.45;;;20.05;;
12687;SDS011;6408;59.388;17.798;2022-08-19T04:21:15;26.05;;;19.65;;
12687;SDS011;6408;59.388;17.798;2022-08-19T04:23:43;23.13;;;19.20;;
12687;SDS011;6408;59.388;17.798;2022-08-19T04:26:13;25.10;;;20.55;;
12687;SDS011;6408;59.388;17.798;2022-08-19T04:28:40;23.77;;;20.42;;
12687;SDS011;6408;59.388;17.798;2022-08-19T04:31:11;29.73;;;20.83;;
12687;SDS011;6408;59.388;17.798;2022-08-19T04:33:40;23.52;;;19.60;;
12687;SDS011;6408;59.388;17.798;2022-08-19T04:36:07;22.67;;;19.13;;
12687;SDS011;6408;59.388;17.798;2022-08-19T04:38:41;21.45;;;19.13;;
12687;SDS011;6408;59.388;17.798;2022-08-19T04:41:07;24.98;;;19.73;;
12687;SDS011;6408;59.388;17.798;2022-08-19T04:44:05;23.05;;;19.70;;
12687;SDS011;6408;59.388;17.798;2022-08-19T04:46:32;22.02;;;18.77;;
12687;SDS011;6408;59.388;17.798;2022-08-19T04:48:59;25.98;;;20.33;;
12687;SDS011;6408;59.388;17.798;2022-08-19T04:51:29;24.75;;;20.23;;
12687;SDS011;6408;59.388;17.798;2022-08-19T04:53:56;27.05;;;21.27;;
12687;SDS011;6408;59.388;17.798;2022-08-19T04:56:25;24.45;;;19.75;;
12687;SDS011;6408;59.388;17.798;2022-08-19T04:58:53;22.08;;;19.63;;
12687;SDS011;6408;59.388;17.798;2022-08-19T05:01:23;24.30;;;19.88;;
12687;SDS011;6408;59.388;17.798;2022-08-19T05:03:53;24.33;;;21.73;;
12687;SDS011;6408;59.388;17.798;2022-08-19T05:06:22;25.08;;;19.48;;
12687;SDS011;6408;59.388;17.798;2022-08-19T05:08:49;24.50;;;19.77;;
12687;SDS011;6408;59.388;17.798;2022-08-19T05:11:17;23.70;;;21.27;;
12687;SDS011;6408;59.388;17.798;2022-08-19T05:13:47;24.70;;;21.38;;
12687;SDS011;6408;59.388;17.798;2022-08-19T05:16:15;25.20;;;21.45;;
12687;SDS011;6408;59.388;17.798;2022-08-19T05:18:44;24.30;;;19.95;;
12687;SDS011;6408;59.388;17.798;2022-08-19T05:21:29;26.92;;;21.10;;
12687;SDS011;6408;59.388;17.798;2022-08-19T05:24:15;23.33;;;19.83;;
12687;SDS011;6408;59.388;17.798;2022-08-19T05:26:43;24.20;;;20.70;;
12687;SDS011;6408;59.388;17.798;2022-08-19T05:29:11;21.40;;;19.10;;
12687;SDS011;6408;59.388;17.798;2022-08-19T05:31:40;29.10;;;20.38;;
12687;SDS011;6408;59.388;17.798;2022-08-19T05:34:08;23.23;;;19.40;;
12687;SDS011;6408;59.388;17.798;2022-08-19T05:36:36;23.65;;;19.77;;
12687;SDS011;6408;59.388;17.798;2022-08-19T05:39:05;24.90;;;20.15;;
12687;SDS011;6408;59.388;17.798;2022-08-19T05:41:32;22.52;;;20.17;;
12687;SDS011;6408;59.388;17.798;2022-08-19T05:44:00;23.63;;;20.40;;
12687;SDS011;6408;59.388;17.798;2022-08-19T05:46:30;24.85;;;20.30;;
12687;SDS011;6408;59.388;17.798;2022-08-19T05:48:58;25.00;;;20.50;;
12687;SDS011;6408;59.388;17.798;2022-08-19T05:51:26;22.63;;;19.30;;
12687;SDS011;6408;59.388;17.798;2022-08-19T05:53:53;24.17;;;21.52;;
12687;SDS011;6408;59.388;17.798;2022-08-19T05:56:19;25.15;;;20.80;;
12687;SDS011;6408;59.388;17.798;2022-08-19T05:58:46;27.00;;;20.77;;
12687;SDS011;6408;59.388;17.798;2022-08-19T06:01:14;28.42;;;20.90;;
12687;SDS011;6408;59.388;17.798;2022-08-19T06:03:44;23.00;;;20.55;;
12687;SDS011;6408;59.388;17.798;2022-08-19T06:06:12;20.90;;;18.75;;
12687;SDS011;6408;59.388;17.798;2022-08-19T06:08:42;25.52;;;20.35;;
12687;SDS011;6408;59.388;17.798;2022-08-19T06:11:14;22.35;;;19.25;;
12687;SDS011;6408;59.388;17.798;2022-08-19T06:13:44;20.05;;;17.92;;
12687;SDS011;6408;59.388;17.798;2022-08-19T06:16:12;22.52;;;18.30;;
12687;SDS011;6408;59.388;17.798;2022-08-19T06:18:44;19.30;;;16.65;;
12687;SDS011;6408;59.388;17.798;2022-08-19T06:21:11;18.20;;;16.30;;
12687;SDS011;6408;59.388;17.798;2022-08-19T06:23:38;18.55;;;16.58;;
12687;SDS011;6408;59.388;17.798;2022-08-19T06:26:07;19.67;;;16.38;;
12687;SDS011;6408;59.388;17.798;2022-08-19T06:28:38;21.20;;;16.00;;
12687;SDS011;6408;59.388;17.798;2022-08-19T06:31:07;18.98;;;16.33;;
12687;SDS011;6408;59.388;17.798;2022-08-19T06:33:34;18.60;;;16.15;;
12687;SDS011;6408;59.388;17.798;2022-08-19T06:36:02;18.02;;;14.80;;
12687;SDS011;6408;59.388;17.798;2022-08-19T06:38:29;18.10;;;13.70;;
12687;SDS011;6408;59.388;17.798;2022-08-19T06:40:59;16.75;;;14.75;;
12687;SDS011;6408;59.388;17.798;2022-08-19T06:43:28;15.45;;;13.32;;
12687;SDS011;6408;59.388;17.798;2022-08-19T06:45:56;15.98;;;14.27;;
12687;SDS011;6408;59.388;17.798;2022-08-19T06:48:24;13.48;;;11.35;;
12687;SDS011;6408;59.388;17.798;2022-08-19T06:50:50;13.60;;;11.68;;
12687;SDS011;6408;59.388;17.798;2022-08-19T06:53:17;14.75;;;11.00;;
12687;SDS011;6408;59.388;17.798;2022-08-19T06:55:45;14.88;;;12.75;;
12687;SDS011;6408;59.388;17.798;2022-08-19T06:58:11;16.25;;;11.10;;
12687;SDS011;6408;59.388;17.798;2022-08-19T07:00:40;13.55;;;12.07;;
12687;SDS011;6408;59.388;17.798;2022-08-19T07:03:07;14.77;;;13.00;;
12687;SDS011;6408;59.388;17.798;2022-08-19T07:05:37;12.77;;;11.30;;
12687;SDS011;6408;59.388;17.798;2022-08-19T07:08:05;14.25;;;12.85;;
12687;SDS011;6408;59.388;17.798;2022-08-19T07:10:32;15.07;;;12.52;;
12687;SDS011;6408;59.388;17.798;2022-08-19T07:13:00;13.15;;;11.95;;
12687;SDS011;6408;59.388;17.798;2022-08-19T07:15:26;13.88;;;10.85;;
12687;SDS011;6408;59.388;17.798;2022-08-19T07:17:54;13.02;;;11.73;;
12687;SDS011;6408;59.388;17.798;2022-08-19T07:20:21;14.52;;;12.00;;
12687;SDS011;6408;59.388;17.798;2022-08-19T07:22:48;13.35;;;11.65;;
12687;SDS011;6408;59.388;17.798;2022-08-19T07:25:15;14.25;;;11.52;;
12687;SDS011;6408;59.388;17.798;2022-08-19T07:27:43;13.52;;;10.70;;
12687;SDS011;6408;59.388;17.798;2022-08-19T07:30:10;14.55;;;10.55;;
12687;SDS011;6408;59.388;17.798;2022-08-19T07:32:38;11.73;;;9.80;;
12687;SDS011;6408;59.388;17.798;2022-08-19T07:35:07;11.50;;;10.50;;
12687;SDS011;6408;59.388;17.798;2022-08-19T07:37:34;12.95;;;9.77;;
12687;SDS011;6408;59.388;17.798;2022-08-19T07:40:02;13.10;;;9.75;;
12687;SDS011;6408;59.388;17.798;2022-08-19T07:42:30;12.18;;;8.85;;
12687;SDS011;6408;59.388;17.798;2022-08-19T07:44:57;10.02;;;7.65;;
12687;SDS011;6408;59.388;17.798;2022-08-19T07:47:24;10.15;;;7.20;;
12687;SDS011;6408;59.388;17.798;2022-08-19T07:49:53;9.63;;;7.10;;
12687;SDS011;6408;59.388;17.798;2022-08-19T07:52:21;13.23;;;7.50;;
12687;SDS011;6408;59.388;17.798;2022-08-19T07:54:48;7.40;;;6.55;;
12687;SDS011;6408;59.388;17.798;2022-08-19T07:57:16;7.65;;;6.90;;
12687;SDS011;6408;59.388;17.798;2022-08-19T07:59:44;10.63;;;7.45;;
12687;SDS011;6408;59.388;17.798;2022-08-19T08:02:10;10.68;;;7.18;;
12687;SDS011;6408;59.388;17.798;2022-08-19T08:04:37;10.95;;;6.78;;
12687;SDS011;6408;59.388;17.798;2022-08-19T08:07:23;8.75;;;6.65;;
12687;SDS011;6408;59.388;17.798;2022-08-19T08:10:07;10.73;;;7.18;;
12687;SDS011;6408;59.388;17.798;2022-08-19T08:12:35;8.07;;;7.07;;
12687;SDS011;6408;59.388;17.798;2022-08-19T08:15:07;9.07;;;6.82;;
12687;SDS011;6408;59.388;17.798;2022-08-19T08:17:36;9.32;;;6.70;;
12687;SDS011;6408;59.388;17.798;2022-08-19T08:20:04;14.57;;;6.80;;
12687;SDS011;6408;59.388;17.798;2022-08-19T08:22:33;8.63;;;6.18;;
12687;SDS011;6408;59.388;17.798;2022-08-19T08:25:21;8.40;;;6.35;;
12687;SDS011;6408;59.388;17.798;2022-08-19T08:27:49;8.45;;;6.47;;
12687;SDS011;6408;59.388;17.798;2022-08-19T08:30:17;9.40;;;6.03;;
12687;SDS011;6408;59.388;17.798;2022-08-19T08:32:46;7.88;;;5.80;;
12687;SDS011;6408;59.388;17.798;2022-08-19T08:35:15;7.55;;;6.00;;
12687;SDS011;6408;59.388;17.798;2022-08-19T08:37:44;9.48;;;6.65;;
12687;SDS011;6408;59.388;17.798;2022-08-19T08:40:13;7.70;;;5.97;;
12687;SDS011;6408;59.388;17.798;2022-08-19T08:42:46;12.50;;;6.55;;
12687;SDS011;6408;59.388;17.798;2022-08-19T08:45:18;9.30;;;6.53;;
12687;SDS011;6408;59.388;17.798;2022-08-19T08:47:46;9.30;;;6.90;;
12687;SDS011;6408;59.388;17.798;2022-08-19T08:50:18;12.82;;;6.45;;
12687;SDS011;6408;59.388;17.798;2022-08-19T08:52:50;14.20;;;6.18;;
12687;SDS011;6408;59.388;17.798;2022-08-19T08:55:22;9.50;;;6.05;;
12687;SDS011;6408;59.388;17.798;2022-08-19T08:57:52;10.60;;;6.28;;
12687;SDS011;6408;59.388;17.798;2022-08-19T09:00:23;7.03;;;5.90;;
12687;SDS011;6408;59.388;17.798;2022-08-19T09:02:52;11.40;;;6.22;;
12687;SDS011;6408;59.388;17.798;2022-08-19T09:05:20;8.93;;;6.32;;
12687;SDS011;6408;59.388;17.798;2022-08-19T09:07:52;11.57;;;6.15;;
12687;SDS011;6408;59.388;17.798;2022-08-19T09:10:28;8.65;;;6.15;;
12687;SDS011;6408;59.388;17.798;2022-08-19T09:13:01;7.85;;;5.65;;
12687;SDS011;6408;59.388;17.798;2022-08-19T09:15:34;8.65;;;6.45;;
12687;SDS011;6408;59.388;17.798;2022-08-19T09:18:06;9.15;;;6.00;;
12687;SDS011;6408;59.388;17.798;2022-08-19T09:20:35;9.27;;;6.32;;
12687;SDS011;6408;59.388;17.798;2022-08-19T09:23:03;9.15;;;6.30;;
12687;SDS011;6408;59.388;17.798;2022-08-19T09:25:30;9.95;;;5.90;;
12687;SDS011;6408;59.388;17.798;2022-08-19T09:27:59;9.40;;;5.60;;
12687;SDS011;6408;59.388;17.798;2022-08-19T09:30:29;7.32;;;5.55;;
12687;SDS011;6408;59.388;17.798;2022-08-19T09:32:57;8.27;;;5.43;;
12687;SDS011;6408;59.388;17.798;2022-08-19T09:35:24;9.10;;;5.40;;
12687;SDS011;6408;59.388;17.798;2022-08-19T09:37:54;10.13;;;5.57;;
12687;SDS011;6408;59.388;17.798;2022-08-19T09:40:24;7.32;;;5.40;;
12687;SDS011;6408;59.388;17.798;2022-08-19T09:42:52;8.63;;;5.38;;
12687;SDS011;6408;59.388;17.798;2022-08-19T09:45:20;7.15;;;6.00;;
12687;SDS011;6408;59.388;17.798;2022-08-19T09:47:47;11.35;;;5.20;;
12687;SDS011;6408;59.388;17.798;2022-08-19T09:50:16;6.88;;;5.10;;
12687;SDS011;6408;59.388;17.798;2022-08-19T09:52:43;6.90;;;5.22;;
12687;SDS011;6408;59.388;17.798;2022-08-19T09:55:10;5.13;;;4.70;;
12687;SDS011;6408;59.388;17.798;2022-08-19T09:57:39;10.35;;;5.32;;
12687;SDS011;6408;59.388;17.798;2022-08-19T10:00:07;6.85;;;5.20;;
12687;SDS011;6408;59.388;17.798;2022-08-19T10:02:35;7.72;;;5.55;;
12687;SDS011;6408;59.388;17.798;2022-08-19T10:05:02;7.40;;;5.32;;
12687;SDS011;6408;59.388;17.798;2022-08-19T10:07:59;5.47;;;4.85;;
12687;SDS011;6408;59.388;17.798;2022-08-19T10:10:26;8.18;;;5.43;;
12687;SDS011;6408;59.388;17.798;2022-08-19T10:12:54;10.60;;;5.55;;
12687;SDS011;6408;59.388;17.798;2022-08-19T10:15:21;6.85;;;5.47;;
12687;SDS011;6408;59.388;17.798;2022-08-19T10:17:48;8.90;;;5.68;;
12687;SDS011;6408;59.388;17.798;2022-08-19T10:20:15;9.90;;;5.65;;
12687;SDS011;6408;59.388;17.798;2022-08-19T10:22:42;8.20;;;5.30;;
12687;SDS011;6408;59.388;17.798;2022-08-19T10:25:09;9.02;;;5.50;;
12687;SDS011;6408;59.388;17.798;2022-08-19T10:27:36;9.02;;;5.43;;
12687;SDS011;6408;59.388;17.798;2022-08-19T10:30:05;7.00;;;4.88;;
12687;SDS011;6408;59.388;17.798;2022-08-19T10:32:33;7.22;;;4.82;;
12687;SDS011;6408;59.388;17.798;2022-08-19T10:35:00;9.20;;;5.15;;
12687;SDS011;6408;59.388;17.798;2022-08-19T10:37:27;9.73;;;5.35;;
12687;SDS011;6408;59.388;17.798;2022-08-19T10:39:55;6.88;;;5.30;;
12687;SDS011;6408;59.388;17.798;2022-08-19T10:42:22;12.35;;;5.72;;
12687;SDS011;6408;59.388;17.798;2022-08-19T10:44:49;6.93;;;4.93;;
12687;SDS011;6408;59.388;17.798;2022-08-19T10:47:17;8.15;;;5.03;;
12687;SDS011;6408;59.388;17.798;2022-08-19T10:49:44;10.80;;;5.18;;
12687;SDS011;6408;59.388;17.798;2022-08-19T10:52:28;10.35;;;5.38;;
12687;SDS011;6408;59.388;17.798;2022-08-19T10:55:02;6.53;;;5.20;;
12687;SDS011;6408;59.388;17.798;2022-08-19T10:57:47;7.85;;;5.00;;
12687;SDS011;6408;59.388;17.798;2022-08-19T11:00:14;10.10;;;4.90;;
12687;SDS011;6408;59.388;17.798;2022-08-19T11:02:42;10.40;;;5.55;;
12687;SDS011;6408;59.388;17.798;2022-08-19T11:05:10;5.43;;;4.80;;
12687;SDS011;6408;59.388;17.798;2022-08-19T11:07:39;7.00;;;4.80;;
12687;SDS011;6408;59.388;17.798;2022-08-19T11:10:07;8.10;;;5.25;;
12687;SDS011;6408;59.388;17.798;2022-08-19T11:12:39;8.95;;;4.65;;
12687;SDS011;6408;59.388;17.798;2022-08-19T11:15:07;6.15;;;5.30;;
12687;SDS011;6408;59.388;17.798;2022-08-19T11:17:35;8.23;;;4.82;;
12687;SDS011;6408;59.388;17.798;2022-08-19T11:20:07;5.10;;;4.57;;
12687;SDS011;6408;59.388;17.798;2022-08-19T11:22:34;7.03;;;4.70;;
12687;SDS011;6408;59.388;17.798;2022-08-19T11:25:01;7.97;;;5.13;;
12687;SDS011;6408;59.388;17.798;2022-08-19T11:27:28;7.07;;;4.55;;
12687;SDS011;6408;59.388;17.798;2022-08-19T11:29:55;6.72;;;4.85;;
12687;SDS011;6408;59.388;17.798;2022-08-19T11:32:22;8.20;;;4.45;;
12687;SDS011;6408;59.388;17.798;2022-08-19T11:34:49;5.50;;;4.55;;
12687;SDS011;6408;59.388;17.798;2022-08-19T11:37:17;9.23;;;5.03;;
12687;SDS011;6408;59.388;17.798;2022-08-19T11:39:44;6.57;;;4.53;;
12687;SDS011;6408;59.388;17.798;2022-08-19T11:42:11;5.00;;;4.50;;
12687;SDS011;6408;59.388;17.798;2022-08-19T11:44:55;5.55;;;4.30;;
12687;SDS011;6408;59.388;17.798;2022-08-19T11:47:22;5.25;;;4.68;;
12687;SDS011;6408;59.388;17.798;2022-08-19T11:49:49;7.50;;;4.85;;
12687;SDS011;6408;59.388;17.798;2022-08-19T11:52:17;5.75;;;5.25;;
12687;SDS011;6408;59.388;17.798;2022-08-19T11:54:44;8.45;;;5.05;;
12687;SDS011;6408;59.388;17.798;2022-08-19T11:57:11;6.15;;;4.85;;
12687;SDS011;6408;59.388;17.798;2022-08-19T11:59:39;8.75;;;4.72;;
12687;SDS011;6408;59.388;17.798;2022-08-19T12:02:06;8.45;;;4.40;;
12687;SDS011;6408;59.388;17.798;2022-08-19T12:04:33;9.60;;;4.72;;
12687;SDS011;6408;59.388;17.798;2022-08-19T12:07:00;8.98;;;4.72;;
12687;SDS011;6408;59.388;17.798;2022-08-19T12:09:29;6.00;;;4.38;;
12687;SDS011;6408;59.388;17.798;2022-08-19T12:11:59;6.68;;;4.40;;
12687;SDS011;6408;59.388;17.798;2022-08-19T12:14:26;6.03;;;4.40;;
12687;SDS011;6408;59.388;17.798;2022-08-19T12:16:55;6.03;;;4.78;;
12687;SDS011;6408;59.388;17.798;2022-08-19T12:19:22;9.85;;;5.00;;
12687;SDS011;6408;59.388;17.798;2022-08-19T12:21:49;5.13;;;4.63;;
12687;SDS011;6408;59.388;17.798;2022-08-19T12:24:18;5.22;;;4.55;;
12687;SDS011;6408;59.388;17.798;2022-08-19T12:26:49;6.13;;;4.60;;
12687;SDS011;6408;59.388;17.798;2022-08-19T12:29:16;5.53;;;4.75;;
12687;SDS011;6408;59.388;17.798;2022-08-19T12:31:43;5.63;;;4.43;;
12687;SDS011;6408;59.388;17.798;2022-08-19T12:34:10;4.82;;;4.35;;
12687;SDS011;6408;59.388;17.798;2022-08-19T12:36:37;5.93;;;4.60;;
12687;SDS011;6408;59.388;17.798;2022-08-19T12:39:04;5.35;;;4.82;;
12687;SDS011;6408;59.388;17.798;2022-08-19T12:41:31;6.53;;;4.35;;
12687;SDS011;6408;59.388;17.798;2022-08-19T12:43:59;6.18;;;4.65;;
12687;SDS011;6408;59.388;17.798;2022-08-19T12:46:26;6.43;;;4.68;;
12687;SDS011;6408;59.388;17.798;2022-08-19T12:48:52;5.72;;;4.45;;
12687;SDS011;6408;59.388;17.798;2022-08-19T12:51:19;7.82;;;4.53;;
12687;SDS011;6408;59.388;17.798;2022-08-19T12:53:47;8.38;;;4.30;;
12687;SDS011;6408;59.388;17.798;2022-08-19T12:56:14;6.05;;;4.45;;
12687;SDS011;6408;59.388;17.798;2022-08-19T12:58:42;5.60;;;4.70;;
12687;SDS011;6408;59.388;17.798;2022-08-19T13:01:11;6.50;;;4.60;;
12687;SDS011;6408;59.388;17.798;2022-08-19T13:03:39;6.88;;;4.68;;
12687;SDS011;6408;59.388;17.798;2022-08-19T13:06:07;9.48;;;4.70;;
12687;SDS011;6408;59.388;17.798;2022-08-19T13:08:35;6.75;;;4.65;;
12687;SDS011;6408;59.388;17.798;2022-08-19T13:11:07;7.75;;;4.78;;
12687;SDS011;6408;59.388;17.798;2022-08-19T13:13:36;9.13;;;5.07;;
12687;SDS011;6408;59.388;17.798;2022-08-19T13:16:05;9.32;;;4.82;;
12687;SDS011;6408;59.388;17.798;2022-08-19T13:18:34;8.77;;;4.97;;
12687;SDS011;6408;59.388;17.798;2022-08-19T13:21:01;6.20;;;4.72;;
12687;SDS011;6408;59.388;17.798;2022-08-19T13:23:29;10.10;;;4.97;;
12687;SDS011;6408;59.388;17.798;2022-08-19T13:25:57;6.00;;;4.35;;
12687;SDS011;6408;59.388;17.798;2022-08-19T13:28:24;6.35;;;5.40;;
12687;SDS011;6408;59.388;17.798;2022-08-19T13:30:51;7.55;;;5.22;;
12687;SDS011;6408;59.388;17.798;2022-08-19T13:33:36;6.38;;;4.57;;
12687;SDS011;6408;59.388;17.798;2022-08-19T13:36:03;7.25;;;4.80;;
12687;SDS011;6408;59.388;17.798;2022-08-19T13:38:32;7.85;;;4.93;;
12687;SDS011;6408;59.388;17.798;2022-08-19T13:41:04;10.70;;;5.18;;
12687;SDS011;6408;59.388;17.798;2022-08-19T13:43:32;6.45;;;4.97;;
12687;SDS011;6408;59.388;17.798;2022-08-19T13:45:58;6.90;;;4.60;;
12687;SDS011;6408;59.388;17.798;2022-08-19T13:48:27;6.18;;;4.93;;
12687;SDS011;6408;59.388;17.798;2022-08-19T13:50:56;7.72;;;4.78;;
12687;SDS011;6408;59.388;17.798;2022-08-19T13:53:23;5.40;;;4.55;;
12687;SDS011;6408;59.388;17.798;2022-08-19T13:55:50;7.70;;;5.60;;
12687;SDS011;6408;59.388;17.798;2022-08-19T13:58:18;7.72;;;4.95;;
12687;SDS011;6408;59.388;17.798;2022-08-19T14:00:45;8.65;;;5.30;;
12687;SDS011;6408;59.388;17.798;2022-08-19T14:03:13;9.30;;;5.10;;
12687;SDS011;6408;59.388;17.798;2022-08-19T14:05:41;7.00;;;5.25;;
12687;SDS011;6408;59.388;17.798;2022-08-19T14:08:09;9.30;;;5.45;;
12687;SDS011;6408;59.388;17.798;2022-08-19T14:10:38;7.22;;;4.90;;
12687;SDS011;6408;59.388;17.798;2022-08-19T14:13:05;7.20;;;5.25;;
12687;SDS011;6408;59.388;17.798;2022-08-19T14:15:32;12.27;;;6.25;;
12687;SDS011;6408;59.388;17.798;2022-08-19T14:18:00;8.25;;;5.78;;
12687;SDS011;6408;59.388;17.798;2022-08-19T14:20:26;9.13;;;5.43;;
12687;SDS011;6408;59.388;17.798;2022-08-19T14:22:53;7.85;;;5.78;;
12687;SDS011;6408;59.388;17.798;2022-08-19T14:25:23;8.13;;;5.45;;
12687;SDS011;6408;59.388;17.798;2022-08-19T14:27:52;7.97;;;5.30;;
12687;SDS011;6408;59.388;17.798;2022-08-19T14:30:21;8.48;;;5.50;;
12687;SDS011;6408;59.388;17.798;2022-08-19T14:32:50;11.10;;;5.55;;
12687;SDS011;6408;59.388;17.798;2022-08-19T14:35:17;10.60;;;5.75;;
12687;SDS011;6408;59.388;17.798;2022-08-19T14:37:45;8.10;;;5.93;;
12687;SDS011;6408;59.388;17.798;2022-08-19T14:40:12;7.35;;;5.75;;
12687;SDS011;6408;59.388;17.798;2022-08-19T14:42:42;9.00;;;5.70;;